createdAt,value
2018-10-17T00:00:10.748Z,83.75
2018-10-17T00:01:10.871Z,83.75
2018-10-17T00:03:03.542Z,83.60
2018-10-17T00:04:03.487Z,83.46
2018-10-17T00:05:56.313Z,83.69
2018-10-17T00:06:56.317Z,83.79
2018-10-17T00:08:49.083Z,83.69
2018-10-17T00:09:49.028Z,83.60
2018-10-17T00:11:41.864Z,83.79
2018-10-17T00:12:41.796Z,83.69
2018-10-17T00:14:34.620Z,83.89
2018-10-17T00:15:34.578Z,83.84
2018-10-17T00:17:27.425Z,83.69
2018-10-17T00:18:27.357Z,83.69
2018-10-17T00:20:20.169Z,83.50
2018-10-17T00:21:20.130Z,83.60
2018-10-17T00:23:13.061Z,83.50
2018-10-17T00:24:12.915Z,83.89
2018-10-17T00:26:06.233Z,83.79
2018-10-17T00:27:06.181Z,84.03
2018-10-17T00:28:59.035Z,83.98
2018-10-17T00:29:58.968Z,84.08
2018-10-17T00:31:51.780Z,83.89
2018-10-17T00:32:51.741Z,83.79
2018-10-17T00:34:44.554Z,83.79
2018-10-17T00:35:44.501Z,83.89
2018-10-17T00:37:37.346Z,83.79
2018-10-17T00:38:37.275Z,83.79
2018-10-17T00:40:30.108Z,83.79
2018-10-17T00:41:30.056Z,83.60
2018-10-17T00:43:22.886Z,83.69
2018-10-17T00:44:22.827Z,83.69
2018-10-17T00:46:15.634Z,83.79
2018-10-17T00:47:15.671Z,83.79
2018-10-17T00:49:08.980Z,82.83
2018-10-17T00:50:08.863Z,83.03
2018-10-17T00:52:01.679Z,83.31
2018-10-17T00:53:01.692Z,82.93
2018-10-17T00:54:54.473Z,82.83
2018-10-17T00:55:54.427Z,83.03
2018-10-17T00:57:47.256Z,83.17
2018-10-17T00:58:47.197Z,83.08
2018-10-17T01:00:40.006Z,82.98
2018-10-17T01:01:39.961Z,82.70
2018-10-17T01:03:32.806Z,82.89
2018-10-17T01:04:32.740Z,82.51
2018-10-17T01:06:25.556Z,83.08
2018-10-17T01:07:25.522Z,82.89
2018-10-17T01:09:18.343Z,83.27
2018-10-17T01:10:18.292Z,83.08
2018-10-17T01:12:11.115Z,82.98
2018-10-17T01:13:11.166Z,82.79
2018-10-17T01:15:03.892Z,82.70
2018-10-17T01:16:03.856Z,82.70
2018-10-17T01:17:56.656Z,82.51
2018-10-17T01:18:56.637Z,82.60
2018-10-17T01:20:49.433Z,82.98
2018-10-17T01:21:49.383Z,82.79
2018-10-17T01:23:42.197Z,82.79
2018-10-17T01:24:42.151Z,83.08
2018-10-17T01:26:34.981Z,83.17
2018-10-17T01:27:34.936Z,82.79
2018-10-17T01:31:00.489Z,82.89
2018-10-17T01:32:00.402Z,82.89
2018-10-17T01:33:53.227Z,82.98
2018-10-17T01:34:53.181Z,82.89
2018-10-17T01:36:45.992Z,82.79
2018-10-17T01:37:45.937Z,83.04
2018-10-17T01:39:38.761Z,82.89
2018-10-17T01:40:38.712Z,82.84
2018-10-17T01:42:31.517Z,83.70
2018-10-17T01:43:31.482Z,83.61
2018-10-17T01:45:24.307Z,83.33
2018-10-17T01:46:24.253Z,83.42
2018-10-17T01:48:17.074Z,83.42
2018-10-17T01:49:17.037Z,83.51
2018-10-17T01:51:09.854Z,83.51
2018-10-17T01:52:09.820Z,83.99
2018-10-17T01:54:02.607Z,83.80
2018-10-17T01:55:02.586Z,83.80
2018-10-17T01:56:55.908Z,83.70
2018-10-17T01:57:55.837Z,83.51
2018-10-17T01:59:48.657Z,83.51
2018-10-17T02:00:48.628Z,83.80
2018-10-17T02:02:42.429Z,83.70
2018-10-17T02:03:42.377Z,83.99
2018-10-17T02:05:35.213Z,83.51
2018-10-17T02:06:35.162Z,83.61
2018-10-17T02:08:27.966Z,83.90
2018-10-17T02:09:27.934Z,83.51
2018-10-17T02:11:20.785Z,83.51
2018-10-17T02:12:20.700Z,83.70
2018-10-17T02:14:13.534Z,83.90
2018-10-17T02:15:13.490Z,83.61
2018-10-17T02:17:06.870Z,83.70
2018-10-17T02:18:06.763Z,83.99
2018-10-17T02:19:59.569Z,83.90
2018-10-17T02:20:59.544Z,83.70
2018-10-17T02:22:52.365Z,83.90
2018-10-17T02:23:52.308Z,83.80
2018-10-17T02:25:45.119Z,83.80
2018-10-17T02:26:45.085Z,83.80
2018-10-17T02:28:37.899Z,83.13
2018-10-17T02:29:37.863Z,83.61
2018-10-17T02:31:31.165Z,83.51
2018-10-17T02:32:31.135Z,83.28
2018-10-17T02:34:23.965Z,83.38
2018-10-17T02:35:23.901Z,83.38
2018-10-17T02:37:16.775Z,83.38
2018-10-17T02:38:16.675Z,83.28
2018-10-17T02:40:09.479Z,83.47
2018-10-17T02:41:09.507Z,83.67
2018-10-17T02:43:02.320Z,83.76
2018-10-17T02:44:02.283Z,83.67
2018-10-17T02:45:55.036Z,83.95
2018-10-17T02:46:55.007Z,83.95
2018-10-17T02:48:47.825Z,84.14
2018-10-17T02:49:47.760Z,83.95
2018-10-17T02:51:40.566Z,84.14
2018-10-17T02:52:40.545Z,83.67
2018-10-17T02:54:33.354Z,83.95
2018-10-17T02:55:33.309Z,84.05
2018-10-17T02:57:26.121Z,84.14
2018-10-17T02:58:26.087Z,83.95
2018-10-17T03:00:18.921Z,83.67
2018-10-17T03:01:18.934Z,84.14
2018-10-17T03:03:11.682Z,84.14
2018-10-17T03:04:11.646Z,84.14
2018-10-17T03:06:04.453Z,83.95
2018-10-17T03:07:04.441Z,84.14
2018-10-17T03:08:57.242Z,83.95
2018-10-17T03:09:57.191Z,83.95
2018-10-17T03:11:49.993Z,83.95
2018-10-17T03:12:49.966Z,84.05
2018-10-17T03:14:42.782Z,84.14
2018-10-17T03:15:42.731Z,83.95
2018-10-17T03:17:35.534Z,84.14
2018-10-17T03:18:35.508Z,84.14
2018-10-17T03:20:28.315Z,83.95
2018-10-17T03:21:28.273Z,84.05
2018-10-17T03:23:21.169Z,84.14
2018-10-17T03:24:21.036Z,84.14
2018-10-17T03:26:13.858Z,84.05
2018-10-17T03:27:13.818Z,83.95
2018-10-17T03:29:06.735Z,84.14
2018-10-17T03:30:06.593Z,84.14
2018-10-17T03:31:59.403Z,83.95
2018-10-17T03:32:59.361Z,84.14
2018-10-17T03:34:52.169Z,84.05
2018-10-17T03:35:52.190Z,84.23
2018-10-17T03:37:44.942Z,83.95
2018-10-17T03:38:44.907Z,84.14
2018-10-17T03:40:37.718Z,84.05
2018-10-17T03:41:37.686Z,84.23
2018-10-17T03:43:30.481Z,84.14
2018-10-17T03:44:30.447Z,83.86
2018-10-17T03:46:23.267Z,84.14
2018-10-17T03:47:23.217Z,84.14
2018-10-17T03:49:16.164Z,84.23
2018-10-17T03:50:15.989Z,84.23
2018-10-17T03:52:08.809Z,84.05
2018-10-17T03:53:08.856Z,84.14
2018-10-17T03:55:02.129Z,84.23
2018-10-17T03:56:02.028Z,83.95
2018-10-17T03:57:54.829Z,84.14
2018-10-17T03:58:54.834Z,84.23
2018-10-17T04:00:47.603Z,84.05
2018-10-17T04:01:47.563Z,83.95
2018-10-17T04:03:40.369Z,84.05
2018-10-17T04:04:40.338Z,83.86
2018-10-17T04:06:33.168Z,84.14
2018-10-17T04:07:33.107Z,84.14
2018-10-17T04:09:25.919Z,84.14
2018-10-17T04:10:25.898Z,84.14
2018-10-17T04:12:19.207Z,83.95
2018-10-17T04:13:19.368Z,83.95
2018-10-17T04:15:12.473Z,84.14
2018-10-17T04:16:12.423Z,83.95
2018-10-17T04:18:05.242Z,83.95
2018-10-17T04:19:05.249Z,83.76
2018-10-17T04:20:58.009Z,83.95
2018-10-17T04:21:57.962Z,83.95
2018-10-17T04:23:50.760Z,83.86
2018-10-17T04:24:50.837Z,84.14
2018-10-17T04:26:43.560Z,83.95
2018-10-17T04:27:43.492Z,83.95
2018-10-17T04:29:36.304Z,84.43
2018-10-17T04:30:36.269Z,83.95
2018-10-17T04:32:29.107Z,84.05
2018-10-17T04:33:29.040Z,83.57
2018-10-17T04:35:21.856Z,84.14
2018-10-17T04:36:21.882Z,84.23
2018-10-17T04:38:14.629Z,84.05
2018-10-17T04:39:14.579Z,83.34
2018-10-17T04:41:07.406Z,83.72
2018-10-17T04:42:07.359Z,83.62
2018-10-17T04:44:00.185Z,83.62
2018-10-17T04:45:00.130Z,83.81
2018-10-17T04:46:52.999Z,83.72
2018-10-17T04:47:52.901Z,83.72
2018-10-17T04:49:45.707Z,83.62
2018-10-17T04:50:45.673Z,83.53
2018-10-17T04:52:38.495Z,84.48
2018-10-17T04:53:38.442Z,84.48
2018-10-17T04:55:31.252Z,84.00
2018-10-17T04:56:31.212Z,84.00
2018-10-17T04:58:24.044Z,84.00
2018-10-17T04:59:23.996Z,84.29
2018-10-17T05:01:16.928Z,83.72
2018-10-17T05:02:16.761Z,83.81
2018-10-17T05:04:09.575Z,84.48
2018-10-17T05:05:09.561Z,84.16
2018-10-17T05:07:02.330Z,83.91
2018-10-17T05:08:02.285Z,84.06
2018-10-17T05:09:55.096Z,84.10
2018-10-17T05:10:55.060Z,83.87
2018-10-17T05:12:47.881Z,83.81
2018-10-17T05:13:47.844Z,84.44
2018-10-17T05:15:40.633Z,84.44
2018-10-17T05:16:40.597Z,84.44
2018-10-17T05:18:33.421Z,84.44
2018-10-17T05:19:33.366Z,84.20
2018-10-17T05:21:26.168Z,84.10
2018-10-17T05:22:26.137Z,84.10
2018-10-17T05:24:18.961Z,84.39
2018-10-17T05:25:18.911Z,84.10
2018-10-17T05:27:13.197Z,84.72
2018-10-17T05:28:13.173Z,84.44
2018-10-17T05:30:05.986Z,84.72
2018-10-17T05:31:05.981Z,84.72
2018-10-17T05:32:58.742Z,84.63
2018-10-17T05:33:58.703Z,84.63
2018-10-17T05:35:51.533Z,84.72
2018-10-17T05:36:51.469Z,84.72
2018-10-17T05:38:44.291Z,84.63
2018-10-17T05:39:44.243Z,84.25
2018-10-17T05:41:37.042Z,84.44
2018-10-17T05:42:37.022Z,84.06
2018-10-17T05:44:29.858Z,84.34
2018-10-17T05:45:29.778Z,84.53
2018-10-17T05:47:22.599Z,84.63
2018-10-17T05:48:22.559Z,84.72
2018-10-17T05:50:15.371Z,84.72
2018-10-17T05:51:15.327Z,84.63
2018-10-17T05:53:08.193Z,84.25
2018-10-17T05:54:08.109Z,84.34
2018-10-17T05:56:00.921Z,84.63
2018-10-17T05:57:00.873Z,84.44
2018-10-17T05:58:53.748Z,84.63
2018-10-17T05:59:53.637Z,84.53
2018-10-17T06:01:46.641Z,84.63
2018-10-17T06:02:46.403Z,84.34
2018-10-17T06:04:39.224Z,84.44
2018-10-17T06:05:39.180Z,84.53
2018-10-17T06:07:31.984Z,84.44
2018-10-17T06:08:31.940Z,84.34
2018-10-17T06:10:24.868Z,84.72
2018-10-17T06:11:24.703Z,84.67
2018-10-17T06:13:17.606Z,84.44
2018-10-17T06:14:17.478Z,84.44
2018-10-17T06:16:10.316Z,84.25
2018-10-17T06:17:10.261Z,84.29
2018-10-17T06:19:03.076Z,84.72
2018-10-17T06:20:03.029Z,84.25
2018-10-17T06:21:55.861Z,84.20
2018-10-17T06:22:55.853Z,84.29
2018-10-17T06:24:48.619Z,84.00
2018-10-17T06:25:48.565Z,84.10
2018-10-17T06:27:41.385Z,84.10
2018-10-17T06:28:41.335Z,84.20
2018-10-17T06:30:34.150Z,84.29
2018-10-17T06:31:34.098Z,84.29
2018-10-17T06:33:26.920Z,84.29
2018-10-17T06:34:26.879Z,84.29
2018-10-17T06:36:19.686Z,84.67
2018-10-17T06:37:19.654Z,84.58
2018-10-17T06:39:12.486Z,84.39
2018-10-17T06:40:12.424Z,84.29
2018-10-17T06:42:05.234Z,84.20
2018-10-17T06:43:05.243Z,83.91
2018-10-17T06:44:58.020Z,84.58
2018-10-17T06:45:57.965Z,84.29
2018-10-17T06:47:50.781Z,84.20
2018-10-17T06:48:50.752Z,84.29
2018-10-17T06:50:43.540Z,83.91
2018-10-17T06:51:43.506Z,83.81
2018-10-17T06:53:36.324Z,84.10
2018-10-17T06:54:36.275Z,83.72
2018-10-17T06:56:29.080Z,84.10
2018-10-17T06:57:29.053Z,84.29
2018-10-17T06:59:21.876Z,83.43
2018-10-17T07:00:21.821Z,83.24
2018-10-17T07:02:14.703Z,83.91
2018-10-17T07:03:14.604Z,83.81
2018-10-17T07:05:07.432Z,83.14
2018-10-17T07:06:07.367Z,83.34
2018-10-17T07:08:00.226Z,83.05
2018-10-17T07:09:00.147Z,83.34
2018-10-17T07:10:52.988Z,83.53
2018-10-17T07:11:52.901Z,83.24
2018-10-17T07:13:45.727Z,83.53
2018-10-17T07:14:45.676Z,83.53
2018-10-17T07:16:38.497Z,83.43
2018-10-17T07:17:38.462Z,83.43
2018-10-17T07:19:31.267Z,83.24
2018-10-17T07:20:31.226Z,83.62
2018-10-17T07:22:24.032Z,83.62
2018-10-17T07:23:23.987Z,83.34
2018-10-17T07:25:16.930Z,83.24
2018-10-17T07:26:16.752Z,83.24
2018-10-17T07:28:09.576Z,83.53
2018-10-17T07:29:09.562Z,83.72
2018-10-17T07:31:02.437Z,83.43
2018-10-17T07:32:02.306Z,83.43
2018-10-17T07:33:55.136Z,83.53
2018-10-17T07:34:55.073Z,83.67
2018-10-17T07:36:47.923Z,83.43
2018-10-17T07:37:47.842Z,83.62
2018-10-17T07:39:40.665Z,83.67
2018-10-17T07:40:40.606Z,83.47
2018-10-17T07:42:33.428Z,83.76
2018-10-17T07:43:33.393Z,83.76
2018-10-17T07:45:26.286Z,83.47
2018-10-17T07:46:26.168Z,83.57
2018-10-17T07:48:18.978Z,83.67
2018-10-17T07:49:18.938Z,83.95
2018-10-17T07:51:11.759Z,83.57
2018-10-17T07:52:11.707Z,84.05
2018-10-17T07:54:04.528Z,84.05
2018-10-17T07:55:04.469Z,83.57
2018-10-17T07:56:57.293Z,83.47
2018-10-17T07:57:57.246Z,83.28
2018-10-17T07:59:50.147Z,83.47
2018-10-17T08:00:50.018Z,83.67
2018-10-17T08:02:42.831Z,83.67
2018-10-17T08:03:42.794Z,83.47
2018-10-17T08:05:35.614Z,83.47
2018-10-17T08:06:35.597Z,83.57
2018-10-17T08:08:28.373Z,83.90
2018-10-17T08:09:28.348Z,82.94
2018-10-17T08:11:21.173Z,83.42
2018-10-17T08:12:21.193Z,84.09
2018-10-17T08:14:14.022Z,83.61
2018-10-17T08:15:13.873Z,83.42
2018-10-17T08:17:06.705Z,83.42
2018-10-17T08:18:06.666Z,83.70
2018-10-17T08:19:59.460Z,83.23
2018-10-17T08:20:59.420Z,82.98
2018-10-17T08:22:52.235Z,83.17
2018-10-17T08:23:52.231Z,82.60
2018-10-17T08:25:44.996Z,82.31
2018-10-17T08:26:45.024Z,82.31
2018-10-17T08:28:37.785Z,82.22
2018-10-17T08:29:37.725Z,82.51
2018-10-17T08:31:30.566Z,81.74
2018-10-17T08:32:30.505Z,81.45
2018-10-17T08:34:23.318Z,81.97
2018-10-17T08:35:23.367Z,81.88
2018-10-17T08:37:16.583Z,82.17
2018-10-17T08:38:16.053Z,81.21
2018-10-17T08:40:08.854Z,81.11
2018-10-17T08:41:08.918Z,81.30
2018-10-17T08:43:01.649Z,81.97
2018-10-17T08:44:01.632Z,81.34
2018-10-17T08:45:54.411Z,81.44
2018-10-17T08:46:54.410Z,81.54
2018-10-17T08:48:47.195Z,80.96
2018-10-17T08:49:47.145Z,81.05
2018-10-17T08:51:39.949Z,80.67
2018-10-17T08:52:39.915Z,80.67
2018-10-17T08:54:32.749Z,80.71
2018-10-17T08:55:32.701Z,81.10
2018-10-17T08:57:25.512Z,80.43
2018-10-17T08:58:25.468Z,79.85
2018-10-17T09:00:18.301Z,80.24
2018-10-17T09:01:18.246Z,79.95
2018-10-17T09:03:11.077Z,79.85
2018-10-17T09:04:11.024Z,79.37
2018-10-17T09:06:03.933Z,79.28
2018-10-17T09:07:03.801Z,79.22
2018-10-17T09:08:56.616Z,79.99
2018-10-17T09:09:56.571Z,79.99
2018-10-17T09:11:49.404Z,79.60
2018-10-17T09:12:49.345Z,79.60
2018-10-17T09:14:42.182Z,79.32
2018-10-17T09:15:42.121Z,79.51
2018-10-17T09:17:34.932Z,79.26
2018-10-17T09:18:34.900Z,79.07
2018-10-17T09:20:27.830Z,79.36
2018-10-17T09:21:28.126Z,78.82
2018-10-17T09:23:20.477Z,78.72
2018-10-17T09:24:20.439Z,79.21
2018-10-17T09:26:13.274Z,78.25
2018-10-17T09:27:13.228Z,78.63
2018-10-17T09:29:06.145Z,77.86
2018-10-17T09:30:06.025Z,77.80
2018-10-17T09:31:58.841Z,77.61
2018-10-17T09:32:58.787Z,77.56
2018-10-17T09:34:51.613Z,75.81
2018-10-17T09:35:51.614Z,74.79
2018-10-17T09:37:44.418Z,74.19
2018-10-17T09:38:44.358Z,73.07
2018-10-17T09:40:37.193Z,70.92
2018-10-17T09:41:37.197Z,69.80
2018-10-17T09:43:30.004Z,65.63
2018-10-17T09:44:29.944Z,63.79
2018-10-17T09:46:23.290Z,61.05
2018-10-17T09:47:23.243Z,58.54
2018-10-17T09:49:16.064Z,57.82
2018-10-17T09:50:16.032Z,56.18
2018-10-17T09:52:09.389Z,55.53
2018-10-17T09:53:09.366Z,54.98
2018-10-17T09:55:02.160Z,51.64
2018-10-17T09:56:02.133Z,49.63
2018-10-17T09:57:54.990Z,48.13
2018-10-17T09:58:54.953Z,47.28
2018-10-17T10:00:48.259Z,45.24
2018-10-17T10:01:48.240Z,46.11
2018-10-17T10:03:41.573Z,45.07
2018-10-17T10:04:41.528Z,43.90
2018-10-17T10:06:34.853Z,42.83
2018-10-17T10:07:34.822Z,43.32
2018-10-17T10:09:27.660Z,42.46
2018-10-17T10:10:27.643Z,41.61
2018-10-17T10:12:20.973Z,41.78
2018-10-17T10:13:20.930Z,42.18
2018-10-17T10:15:14.276Z,40.47
2018-10-17T10:16:14.295Z,40.48
2018-10-17T10:18:07.596Z,39.24
2018-10-17T10:19:07.559Z,39.04
2018-10-17T10:21:00.883Z,38.18
2018-10-17T10:22:00.877Z,37.91
2018-10-17T10:23:54.255Z,36.96
2018-10-17T10:24:54.225Z,36.96
2018-10-17T10:26:47.488Z,35.80
2018-10-17T10:27:47.468Z,36.02
2018-10-17T10:29:40.864Z,34.67
2018-10-17T10:30:40.780Z,34.47
2018-10-17T10:32:34.121Z,34.09
2018-10-17T10:33:34.102Z,33.69
2018-10-17T10:35:27.446Z,33.53
2018-10-17T10:36:27.411Z,32.73
2018-10-17T10:38:20.779Z,33.53
2018-10-17T10:39:20.740Z,33.14
2018-10-17T10:41:14.074Z,32.87
2018-10-17T10:42:14.190Z,32.09
2018-10-17T10:44:07.476Z,31.13
2018-10-17T10:45:07.455Z,30.93
2018-10-17T10:47:00.724Z,31.23
2018-10-17T10:48:00.782Z,30.94
2018-10-17T10:49:54.102Z,29.87
2018-10-17T10:50:54.071Z,29.97
2018-10-17T10:52:47.407Z,29.87
2018-10-17T10:53:47.353Z,29.88
2018-10-17T10:55:40.692Z,29.59
2018-10-17T10:56:40.642Z,30.10
2018-10-17T10:58:34.083Z,29.50
2018-10-17T10:59:34.168Z,29.50
2018-10-17T11:01:27.331Z,29.13
2018-10-17T11:02:27.298Z,28.54
2018-10-17T11:04:20.624Z,28.51
2018-10-17T11:05:20.771Z,28.53
2018-10-17T11:07:14.024Z,28.64
2018-10-17T11:08:14.106Z,28.64
2018-10-17T11:10:07.335Z,28.64
2018-10-17T11:11:07.338Z,28.25
2018-10-17T11:13:00.627Z,28.74
2018-10-17T11:14:00.669Z,28.64
2018-10-17T11:15:53.960Z,27.66
2018-10-17T11:16:53.965Z,27.35
2018-10-17T11:18:47.250Z,28.72
2018-10-17T11:19:47.237Z,28.82
2018-10-17T11:21:40.618Z,28.05
2018-10-17T11:22:40.561Z,27.55
2018-10-17T11:24:33.898Z,28.64
2018-10-17T11:25:33.881Z,27.56
2018-10-17T11:27:27.242Z,27.95
2018-10-17T11:28:27.211Z,27.67
2018-10-17T11:30:20.552Z,27.18
2018-10-17T11:31:20.527Z,27.77
2018-10-17T11:33:14.012Z,27.28
2018-10-17T11:34:13.831Z,27.77
2018-10-17T11:36:07.177Z,26.61
2018-10-17T11:37:07.160Z,27.09
2018-10-17T11:39:00.525Z,27.37
2018-10-17T11:40:00.497Z,27.26
2018-10-17T11:41:53.811Z,27.56
2018-10-17T11:42:53.776Z,27.94
2018-10-17T11:44:47.114Z,28.01
2018-10-17T11:45:47.104Z,28.99
2018-10-17T11:47:40.494Z,29.68
2018-10-17T11:48:40.398Z,29.48
2018-10-17T11:50:33.791Z,30.54
2018-10-17T11:51:33.716Z,30.13
2018-10-17T11:53:27.058Z,30.12
2018-10-17T11:54:27.027Z,31.16
2018-10-17T11:56:20.350Z,32.40
2018-10-17T11:57:20.421Z,33.17
2018-10-17T11:59:13.761Z,33.44
2018-10-17T12:00:13.637Z,33.64
2018-10-17T12:02:06.962Z,34.40
2018-10-17T12:03:07.003Z,35.38
2018-10-17T12:04:59.978Z,35.83
2018-10-17T12:05:59.817Z,35.71
2018-10-17T12:07:52.599Z,36.00
2018-10-17T12:08:52.558Z,37.06
2018-10-17T12:10:45.384Z,37.14
2018-10-17T12:11:45.381Z,37.60
2018-10-17T12:13:38.707Z,38.19
2018-10-17T12:14:38.663Z,38.29
2018-10-17T12:16:31.489Z,39.32
2018-10-17T12:17:31.465Z,39.53
2018-10-17T12:19:24.798Z,39.51
2018-10-17T12:20:24.780Z,39.59
2018-10-17T12:22:17.583Z,40.46
2018-10-17T12:23:17.552Z,41.61
2018-10-17T12:25:10.389Z,41.58
2018-10-17T12:26:10.350Z,41.30
2018-10-17T12:28:03.324Z,41.97
2018-10-17T12:29:03.134Z,42.38
2018-10-17T12:30:55.991Z,42.26
2018-10-17T12:31:55.938Z,41.97
2018-10-17T12:33:49.259Z,42.75
2018-10-17T12:34:49.236Z,43.13
2018-10-17T12:36:42.568Z,42.94
2018-10-17T12:37:42.535Z,42.85
2018-10-17T12:39:35.400Z,43.23
2018-10-17T12:40:35.536Z,43.33
2018-10-17T12:42:28.674Z,42.75
2018-10-17T12:43:28.626Z,43.02
2018-10-17T12:45:22.038Z,42.92
2018-10-17T12:46:21.916Z,43.21
2018-10-17T12:48:14.730Z,43.00
2018-10-17T12:49:14.859Z,43.68
2018-10-17T12:51:07.548Z,44.35
2018-10-17T12:52:07.561Z,43.87
2018-10-17T12:54:00.844Z,43.48
2018-10-17T12:55:00.850Z,43.58
2018-10-17T12:56:53.621Z,43.96
2018-10-17T12:57:53.590Z,43.60
2018-10-17T12:59:46.399Z,43.02
2018-10-17T13:00:46.375Z,42.72
2018-10-17T13:02:39.206Z,42.82
2018-10-17T13:03:39.158Z,42.54
2018-10-17T13:05:31.996Z,42.34
2018-10-17T13:06:31.980Z,42.82
2018-10-17T13:08:24.807Z,42.92
2018-10-17T13:09:24.789Z,43.02
2018-10-17T13:11:17.777Z,42.72
2018-10-17T13:12:17.566Z,42.92
2018-10-17T13:14:10.389Z,42.80
2018-10-17T13:15:10.437Z,42.92
2018-10-17T13:17:03.696Z,43.70
2018-10-17T13:18:03.647Z,43.38
2018-10-17T13:19:56.464Z,44.09
2018-10-17T13:20:56.451Z,44.74
2018-10-17T13:22:49.266Z,44.64
2018-10-17T13:23:49.228Z,44.93
2018-10-17T13:25:42.545Z,45.42
2018-10-17T13:26:42.518Z,45.71
2018-10-17T13:28:35.338Z,46.84
2018-10-17T13:29:35.303Z,46.56
2018-10-17T13:31:28.625Z,46.36
2018-10-17T13:32:28.601Z,46.46
2018-10-17T13:34:21.926Z,46.26
2018-10-17T13:35:21.881Z,46.08
2018-10-17T13:37:15.326Z,46.15
2018-10-17T13:38:15.171Z,46.73
2018-10-17T13:40:08.520Z,47.41
2018-10-17T13:41:08.516Z,46.92
2018-10-17T13:43:01.312Z,47.14
2018-10-17T13:44:01.248Z,46.73
2018-10-17T13:45:54.600Z,46.92
2018-10-17T13:46:54.635Z,47.02
2018-10-17T13:48:47.404Z,46.05
2018-10-17T13:49:47.462Z,45.66
2018-10-17T13:51:40.204Z,46.92
2018-10-17T13:52:40.163Z,46.83
2018-10-17T13:54:33.062Z,45.86
2018-10-17T13:55:32.939Z,46.73
2018-10-17T13:57:25.773Z,45.66
2018-10-17T13:58:25.824Z,45.95
2018-10-17T14:00:19.072Z,46.05
2018-10-17T14:01:19.033Z,46.15
2018-10-17T14:03:12.336Z,46.63
2018-10-17T14:04:12.384Z,46.73
2018-10-17T14:06:05.691Z,47.02
2018-10-17T14:07:05.685Z,46.83
2018-10-17T14:08:58.963Z,47.31
2018-10-17T14:09:58.894Z,47.31
2018-10-17T14:11:51.736Z,47.69
2018-10-17T14:12:51.683Z,47.69
2018-10-17T14:14:45.007Z,47.60
2018-10-17T14:15:44.980Z,47.99
2018-10-17T14:17:37.788Z,46.56
2018-10-17T14:18:37.754Z,47.14
2018-10-17T14:20:31.122Z,46.87
2018-10-17T14:21:31.045Z,46.87
2018-10-17T14:23:24.403Z,46.48
2018-10-17T14:24:24.336Z,45.64
2018-10-17T14:26:17.183Z,45.15
2018-10-17T14:27:17.249Z,45.34
2018-10-17T14:29:10.458Z,44.96
2018-10-17T14:30:10.437Z,45.17
2018-10-17T14:32:03.259Z,45.27
2018-10-17T14:33:03.224Z,44.98
2018-10-17T14:34:56.528Z,44.47
2018-10-17T14:35:56.507Z,44.86
2018-10-17T14:37:49.473Z,45.05
2018-10-17T14:38:49.322Z,45.83
2018-10-17T14:40:42.187Z,47.45
2018-10-17T14:41:42.104Z,48.03
2018-10-17T14:43:34.928Z,48.03
2018-10-17T14:44:34.894Z,48.03
2018-10-17T14:46:28.222Z,48.97
2018-10-17T14:47:28.159Z,48.97
2018-10-17T14:49:20.998Z,48.39
2018-10-17T14:50:20.958Z,48.88
2018-10-17T14:52:13.796Z,48.69
2018-10-17T14:53:13.827Z,48.88
2018-10-17T14:55:07.069Z,49.27
2018-10-17T14:56:07.103Z,49.75
2018-10-17T14:58:00.377Z,49.44
2018-10-17T14:59:00.393Z,50.31
2018-10-17T15:00:53.652Z,50.70
2018-10-17T15:01:53.624Z,50.70
2018-10-17T15:03:46.952Z,50.79
2018-10-17T15:04:46.920Z,50.79
2018-10-17T15:06:40.237Z,50.86
2018-10-17T15:07:40.199Z,50.86
2018-10-17T15:09:33.551Z,51.54
2018-10-17T15:10:33.606Z,51.44
2018-10-17T15:12:26.838Z,51.64
2018-10-17T15:13:26.787Z,52.29
2018-10-17T15:15:20.208Z,52.00
2018-10-17T15:16:20.066Z,51.90
2018-10-17T15:18:13.472Z,52.19
2018-10-17T15:19:13.344Z,52.39
2018-10-17T15:21:06.247Z,52.87
2018-10-17T15:22:06.141Z,52.58
2018-10-17T15:23:59.034Z,52.45
2018-10-17T15:24:58.941Z,52.77
2018-10-17T15:26:52.270Z,52.55
2018-10-17T15:27:52.225Z,52.94
2018-10-17T15:29:45.556Z,53.13
2018-10-17T15:30:45.502Z,52.75
2018-10-17T15:32:38.807Z,53.61
2018-10-17T15:33:38.778Z,54.49
2018-10-17T15:35:32.124Z,54.00
2018-10-17T15:36:32.075Z,54.39
2018-10-17T15:38:25.394Z,54.58
2018-10-17T15:39:25.349Z,54.58
2018-10-17T15:41:18.182Z,54.94
2018-10-17T15:42:18.300Z,55.52
2018-10-17T15:44:10.966Z,55.90
2018-10-17T15:45:10.966Z,56.20
2018-10-17T15:47:04.247Z,56.39
2018-10-17T15:48:04.244Z,56.58
2018-10-17T15:49:57.542Z,56.77
2018-10-17T15:50:57.502Z,57.06
2018-10-17T15:52:50.341Z,57.26
2018-10-17T15:53:50.283Z,57.90
2018-10-17T15:55:43.616Z,58.39
2018-10-17T15:56:43.559Z,58.87
2018-10-17T15:58:36.392Z,58.87
2018-10-17T15:59:36.348Z,58.77
2018-10-17T16:01:29.198Z,59.55
2018-10-17T16:02:29.172Z,59.55
2018-10-17T16:04:21.962Z,60.48
2018-10-17T16:05:21.920Z,60.38
2018-10-17T16:07:14.743Z,60.77
2018-10-17T16:08:14.770Z,60.96
2018-10-17T16:10:07.539Z,60.77
2018-10-17T16:11:07.489Z,61.25
2018-10-17T16:13:00.308Z,61.61
2018-10-17T16:14:00.351Z,61.44
2018-10-17T16:15:53.601Z,61.90
2018-10-17T16:16:53.566Z,62.18
2018-10-17T16:18:46.369Z,62.66
2018-10-17T16:19:46.335Z,62.57
2018-10-17T16:21:39.170Z,62.96
2018-10-17T16:22:39.129Z,63.15
2018-10-17T16:24:32.449Z,63.02
2018-10-17T16:25:32.438Z,63.70
2018-10-17T16:27:25.766Z,63.21
2018-10-17T16:28:25.729Z,63.98
2018-10-17T16:30:18.598Z,64.18
2018-10-17T16:31:18.507Z,64.18
2018-10-17T16:33:11.325Z,64.66
2018-10-17T16:34:11.290Z,64.56
2018-10-17T16:36:04.292Z,64.82
2018-10-17T16:37:04.109Z,65.11
2018-10-17T16:38:56.901Z,65.30
2018-10-17T16:39:56.865Z,65.50
2018-10-17T16:41:49.684Z,65.69
2018-10-17T16:42:49.625Z,65.50
2018-10-17T16:44:42.950Z,66.04
2018-10-17T16:45:42.921Z,65.85
2018-10-17T16:47:35.765Z,66.46
2018-10-17T16:48:35.697Z,66.62
2018-10-17T16:50:28.559Z,66.71
2018-10-17T16:51:28.483Z,67.39
2018-10-17T16:53:21.316Z,67.00
2018-10-17T16:54:21.279Z,67.39
2018-10-17T16:56:14.116Z,67.77
2018-10-17T16:57:14.166Z,67.68
2018-10-17T16:59:06.907Z,67.93
2018-10-17T17:00:06.887Z,67.74
2018-10-17T17:02:00.278Z,68.60
2018-10-17T17:03:00.189Z,68.80
2018-10-17T17:04:52.933Z,68.41
2018-10-17T17:05:52.967Z,68.70
2018-10-17T17:07:45.738Z,69.24
2018-10-17T17:08:45.692Z,68.67
2018-10-17T17:10:38.546Z,69.44
2018-10-17T17:11:38.477Z,69.63
2018-10-17T17:13:31.313Z,69.82
2018-10-17T17:14:31.282Z,69.44
2018-10-17T17:16:24.123Z,70.01
2018-10-17T17:17:24.042Z,70.01
2018-10-17T17:19:16.878Z,70.30
2018-10-17T17:20:16.832Z,70.78
2018-10-17T17:22:09.752Z,70.46
2018-10-17T17:23:09.651Z,70.37
2018-10-17T17:25:02.471Z,70.84
2018-10-17T17:26:02.434Z,71.61
2018-10-17T17:27:55.769Z,71.14
2018-10-17T17:28:55.717Z,71.23
2018-10-17T17:30:48.533Z,71.61
2018-10-17T17:31:48.511Z,71.52
2018-10-17T17:33:41.321Z,72.09
2018-10-17T17:34:41.272Z,71.87
2018-10-17T17:36:34.199Z,72.16
2018-10-17T17:37:34.053Z,71.96
2018-10-17T17:39:27.389Z,72.25
2018-10-17T17:40:27.347Z,72.92
2018-10-17T17:42:20.147Z,72.64
2018-10-17T17:43:20.114Z,73.31
2018-10-17T17:45:12.955Z,73.21
2018-10-17T17:46:12.947Z,73.11
2018-10-17T17:48:05.748Z,73.69
2018-10-17T17:49:05.717Z,73.79
2018-10-17T17:50:59.033Z,73.69
2018-10-17T17:51:59.023Z,73.75
2018-10-17T17:53:51.825Z,74.13
2018-10-17T17:54:51.778Z,74.52
2018-10-17T17:56:44.599Z,73.75
2018-10-17T17:57:44.606Z,74.23
2018-10-17T17:59:37.402Z,74.43
2018-10-17T18:00:37.344Z,74.43
2018-10-17T18:02:30.165Z,74.23
2018-10-17T18:03:30.129Z,74.43
2018-10-17T18:05:23.458Z,74.33
2018-10-17T18:06:23.407Z,74.23
2018-10-17T18:08:16.241Z,74.96
2018-10-17T18:09:16.185Z,75.06
2018-10-17T18:11:09.045Z,74.81
2018-10-17T18:12:08.970Z,75.35
2018-10-17T18:14:01.788Z,75.15
2018-10-17T18:15:01.765Z,75.54
2018-10-17T18:16:54.629Z,75.63
2018-10-17T18:17:54.580Z,75.82
2018-10-17T18:19:47.404Z,75.92
2018-10-17T18:20:47.364Z,75.73
2018-10-17T18:22:40.664Z,76.12
2018-10-17T18:23:40.643Z,75.63
2018-10-17T18:25:33.471Z,75.45
2018-10-17T18:26:33.414Z,76.31
2018-10-17T18:28:26.284Z,76.21
2018-10-17T18:29:26.219Z,76.21
2018-10-17T18:31:19.040Z,76.21
2018-10-17T18:32:18.989Z,75.82
2018-10-17T18:34:11.805Z,76.40